sensor_id;sensor_type;location;lat;lon;timestamp;temperature;humidity
21282;DHT22;10800;53.096;18.328;2022-12-29T00:01:59;6.00;99.90
21282;DHT22;10800;53.096;18.328;2022-12-29T00:07:10;6.00;99.90
21282;DHT22;10800;53.096;18.328;2022-12-29T00:12:18;5.90;99.90
21282;DHT22;10800;53.096;18.328;2022-12-29T00:17:33;5.90;99.90
21282;DHT22;10800;53.096;18.328;2022-12-29T00:22:39;5.80;99.90
21282;DHT22;10800;53.096;18.328;2022-12-29T00:28:09;5.80;99.90
21282;DHT22;10800;53.096;18.328;2022-12-29T00:33:36;5.80;99.90
21282;DHT22;10800;53.096;18.328;2022-12-29T00:39:13;5.80;99.90
21282;DHT22;10800;53.096;18.328;2022-12-29T00:44:34;5.80;99.90
21282;DHT22;10800;53.096;18.328;2022-12-29T00:49:39;5.80;99.90
21282;DHT22;10800;53.096;18.328;2022-12-29T00:54:49;5.80;99.90
21282;DHT22;10800;53.096;18.328;2022-12-29T00:59:57;5.80;99.90
21282;DHT22;10800;53.096;18.328;2022-12-29T01:05:08;5.80;99.90
21282;DHT22;10800;53.096;18.328;2022-12-29T01:10:24;5.70;99.90
21282;DHT22;10800;53.096;18.328;2022-12-29T01:15:29;5.80;99.90
21282;DHT22;10800;53.096;18.328;2022-12-29T01:20:52;5.80;99.90
21282;DHT22;10800;53.096;18.328;2022-12-29T01:26:11;5.70;99.90
21282;DHT22;10800;53.096;18.328;2022-12-29T01:31:22;5.70;99.90
21282;DHT22;10800;53.096;18.328;2022-12-29T01:36:32;5.70;99.90
21282;DHT22;10800;53.096;18.328;2022-12-29T01:41:39;5.70;99.90
21282;DHT22;10800;53.096;18.328;2022-12-29T01:47:06;5.70;99.90
21282;DHT22;10800;53.096;18.328;2022-12-29T01:52:36;5.70;99.90
21282;DHT22;10800;53.096;18.328;2022-12-29T01:58:03;5.70;99.90
21282;DHT22;10800;53.096;18.328;2022-12-29T02:03:11;5.60;99.90
21282;DHT22;10800;53.096;18.328;2022-12-29T02:08:36;5.60;99.90
21282;DHT22;10800;53.096;18.328;2022-12-29T02:13:48;5.60;99.90
21282;DHT22;10800;53.096;18.328;2022-12-29T02:29:53;5.70;99.90
21282;DHT22;10800;53.096;18.328;2022-12-29T02:40:42;5.90;99.90
21282;DHT22;10800;53.096;18.328;2022-12-29T02:46:11;5.90;99.90
21282;DHT22;10800;53.096;18.328;2022-12-29T02:51:15;6.00;99.90
21282;DHT22;10800;53.096;18.328;2022-12-29T02:56:18;6.00;99.90
21282;DHT22;10800;53.096;18.328;2022-12-29T03:12:45;6.10;99.90
21282;DHT22;10800;53.096;18.328;2022-12-29T03:18:14;6.10;99.90
21282;DHT22;10800;53.096;18.328;2022-12-29T03:23:27;6.10;99.90
21282;DHT22;10800;53.096;18.328;2022-12-29T03:28:36;6.20;99.90
21282;DHT22;10800;53.096;18.328;2022-12-29T03:33:46;6.10;99.90
21282;DHT22;10800;53.096;18.328;2022-12-29T03:39:08;6.20;99.90
21282;DHT22;10800;53.096;18.328;2022-12-29T03:44:21;6.10;99.90
21282;DHT22;10800;53.096;18.328;2022-12-29T03:49:28;6.20;99.90
21282;DHT22;10800;53.096;18.328;2022-12-29T03:54:35;6.10;99.90
21282;DHT22;10800;53.096;18.328;2022-12-29T03:59:48;6.10;99.90
21282;DHT22;10800;53.096;18.328;2022-12-29T04:05:15;6.10;99.90
21282;DHT22;10800;53.096;18.328;2022-12-29T04:10:25;6.10;99.90
21282;DHT22;10800;53.096;18.328;2022-12-29T04:15:44;6.10;99.90
21282;DHT22;10800;53.096;18.328;2022-12-29T04:20:52;6.10;99.90
21282;DHT22;10800;53.096;18.328;2022-12-29T04:26:08;6.00;99.90
21282;DHT22;10800;53.096;18.328;2022-12-29T04:31:16;6.00;99.90
21282;DHT22;10800;53.096;18.328;2022-12-29T04:36:31;6.10;99.90
21282;DHT22;10800;53.096;18.328;2022-12-29T04:41:38;6.10;99.90
21282;DHT22;10800;53.096;18.328;2022-12-29T04:46:47;6.10;99.90
21282;DHT22;10800;53.096;18.328;2022-12-29T04:52:00;6.10;99.90
21282;DHT22;10800;53.096;18.328;2022-12-29T04:57:11;6.10;99.90
21282;DHT22;10800;53.096;18.328;2022-12-29T05:02:19;6.10;99.90
21282;DHT22;10800;53.096;18.328;2022-12-29T05:07:33;6.10;99.90
21282;DHT22;10800;53.096;18.328;2022-12-29T05:12:43;6.10;99.90
21282;DHT22;10800;53.096;18.328;2022-12-29T05:17:50;6.10;99.90
21282;DHT22;10800;53.096;18.328;2022-12-29T05:22:56;6.10;99.90
21282;DHT22;10800;53.096;18.328;2022-12-29T05:28:08;6.20;99.90
21282;DHT22;10800;53.096;18.328;2022-12-29T05:33:14;6.20;99.90
21282;DHT22;10800;53.096;18.328;2022-12-29T05:38:19;6.30;99.90
21282;DHT22;10800;53.096;18.328;2022-12-29T05:43:30;6.30;99.90
21282;DHT22;10800;53.096;18.328;2022-12-29T05:48:38;6.40;99.90
21282;DHT22;10800;53.096;18.328;2022-12-29T05:54:22;6.40;99.90
21282;DHT22;10800;53.096;18.328;2022-12-29T05:59:51;6.40;99.90
21282;DHT22;10800;53.096;18.328;2022-12-29T06:04:57;6.40;99.90
21282;DHT22;10800;53.096;18.328;2022-12-29T06:10:06;6.50;99.90
21282;DHT22;10800;53.096;18.328;2022-12-29T06:15:36;6.50;99.90
21282;DHT22;10800;53.096;18.328;2022-12-29T06:20:48;6.50;99.90
21282;DHT22;10800;53.096;18.328;2022-12-29T06:25:57;6.50;99.90
21282;DHT22;10800;53.096;18.328;2022-12-29T06:31:09;6.40;99.90
21282;DHT22;10800;53.096;18.328;2022-12-29T06:36:38;6.40;99.90
21282;DHT22;10800;53.096;18.328;2022-12-29T06:42:26;6.40;99.90
21282;DHT22;10800;53.096;18.328;2022-12-29T06:47:36;6.50;99.90
21282;DHT22;10800;53.096;18.328;2022-12-29T06:52:44;6.50;99.90
21282;DHT22;10800;53.096;18.328;2022-12-29T06:57:59;6.40;99.90
21282;DHT22;10800;53.096;18.328;2022-12-29T07:03:07;6.40;99.90
21282;DHT22;10800;53.096;18.328;2022-12-29T07:08:14;6.40;99.90
21282;DHT22;10800;53.096;18.328;2022-12-29T07:13:39;6.40;99.90
21282;DHT22;10800;53.096;18.328;2022-12-29T07:19:13;6.60;99.90
21282;DHT22;10800;53.096;18.328;2022-12-29T07:25:00;6.60;99.90
21282;DHT22;10800;53.096;18.328;2022-12-29T07:30:32;6.70;99.90
21282;DHT22;10800;53.096;18.328;2022-12-29T07:36:00;6.70;99.90
21282;DHT22;10800;53.096;18.328;2022-12-29T07:41:30;6.90;99.90
21282;DHT22;10800;53.096;18.328;2022-12-29T07:46:44;6.90;99.90
21282;DHT22;10800;53.096;18.328;2022-12-29T07:52:20;7.00;99.90
21282;DHT22;10800;53.096;18.328;2022-12-29T07:57:45;7.10;99.90
21282;DHT22;10800;53.096;18.328;2022-12-29T08:03:40;7.10;99.90
21282;DHT22;10800;53.096;18.328;2022-12-29T08:08:52;7.10;99.90
21282;DHT22;10800;53.096;18.328;2022-12-29T08:14:24;7.10;99.90
21282;DHT22;10800;53.096;18.328;2022-12-29T08:19:41;7.00;99.90
21282;DHT22;10800;53.096;18.328;2022-12-29T08:25:22;7.00;99.90
21282;DHT22;10800;53.096;18.328;2022-12-29T08:30:53;7.10;99.90
21282;DHT22;10800;53.096;18.328;2022-12-29T08:36:46;7.20;99.90
21282;DHT22;10800;53.096;18.328;2022-12-29T08:42:00;7.40;99.90
21282;DHT22;10800;53.096;18.328;2022-12-29T08:47:50;7.60;99.90
21282;DHT22;10800;53.096;18.328;2022-12-29T08:53:22;7.60;99.90
21282;DHT22;10800;53.096;18.328;2022-12-29T08:58:31;7.70;99.90
21282;DHT22;10800;53.096;18.328;2022-12-29T09:03:43;7.80;99.90
21282;DHT22;10800;53.096;18.328;2022-12-29T09:09:30;8.00;99.90
21282;DHT22;10800;53.096;18.328;2022-12-29T09:14:39;8.00;99.90
21282;DHT22;10800;53.096;18.328;2022-12-29T09:20:13;8.10;99.90
21282;DHT22;10800;53.096;18.328;2022-12-29T09:25:29;8.10;99.90
21282;DHT22;10800;53.096;18.328;2022-12-29T09:30:45;8.10;99.90
21282;DHT22;10800;53.096;18.328;2022-12-29T09:36:01;8.10;99.90
21282;DHT22;10800;53.096;18.328;2022-12-29T09:41:18;8.10;99.90
21282;DHT22;10800;53.096;18.328;2022-12-29T09:46:28;8.20;99.90
21282;DHT22;10800;53.096;18.328;2022-12-29T09:51:38;8.20;99.90
21282;DHT22;10800;53.096;18.328;2022-12-29T09:56:48;8.20;99.90
21282;DHT22;10800;53.096;18.328;2022-12-29T10:07:52;8.20;99.90
21282;DHT22;10800;53.096;18.328;2022-12-29T10:13:40;8.30;99.90
21282;DHT22;10800;53.096;18.328;2022-12-29T10:24:02;8.40;99.90
21282;DHT22;10800;53.096;18.328;2022-12-29T10:29:39;8.50;99.90
21282;DHT22;10800;53.096;18.328;2022-12-29T10:34:39;8.50;99.90
21282;DHT22;10800;53.096;18.328;2022-12-29T10:39:57;8.70;99.90
21282;DHT22;10800;53.096;18.328;2022-12-29T10:45:17;8.80;99.90
21282;DHT22;10800;53.096;18.328;2022-12-29T10:50:23;8.80;99.90
21282;DHT22;10800;53.096;18.328;2022-12-29T10:55:40;8.70;99.90
21282;DHT22;10800;53.096;18.328;2022-12-29T11:00:49;8.70;99.90
21282;DHT22;10800;53.096;18.328;2022-12-29T11:11:14;8.60;99.90
21282;DHT22;10800;53.096;18.328;2022-12-29T11:16:32;8.60;99.90
21282;DHT22;10800;53.096;18.328;2022-12-29T11:21:39;8.80;99.90
21282;DHT22;10800;53.096;18.328;2022-12-29T11:26:54;8.90;99.90
21282;DHT22;10800;53.096;18.328;2022-12-29T11:32:28;9.00;99.90
21282;DHT22;10800;53.096;18.328;2022-12-29T11:37:39;8.90;99.90
21282;DHT22;10800;53.096;18.328;2022-12-29T11:42:53;8.90;99.90
21282;DHT22;10800;53.096;18.328;2022-12-29T11:48:16;9.00;99.90
21282;DHT22;10800;53.096;18.328;2022-12-29T11:53:26;9.00;99.90
21282;DHT22;10800;53.096;18.328;2022-12-29T11:58:37;8.90;99.90
21282;DHT22;10800;53.096;18.328;2022-12-29T12:04:04;9.10;99.90
21282;DHT22;10800;53.096;18.328;2022-12-29T12:09:19;9.50;99.90
21282;DHT22;10800;53.096;18.328;2022-12-29T12:14:34;9.80;99.90
21282;DHT22;10800;53.096;18.328;2022-12-29T12:19:53;9.80;99.90
21282;DHT22;10800;53.096;18.328;2022-12-29T12:25:11;9.80;99.90
21282;DHT22;10800;53.096;18.328;2022-12-29T12:30:20;9.80;99.90
21282;DHT22;10800;53.096;18.328;2022-12-29T12:35:53;9.70;99.90
21282;DHT22;10800;53.096;18.328;2022-12-29T12:41:08;9.70;99.90
21282;DHT22;10800;53.096;18.328;2022-12-29T12:46:52;9.80;99.90
21282;DHT22;10800;53.096;18.328;2022-12-29T12:57:30;9.80;99.90
21282;DHT22;10800;53.096;18.328;2022-12-29T13:13:40;9.70;99.90
21282;DHT22;10800;53.096;18.328;2022-12-29T13:18:17;9.70;99.90
21282;DHT22;10800;53.096;18.328;2022-12-29T13:39:39;9.60;99.90
21282;DHT22;10800;53.096;18.328;2022-12-29T13:44:48;9.70;99.90
21282;DHT22;10800;53.096;18.328;2022-12-29T13:49:54;9.50;99.90
21282;DHT22;10800;53.096;18.328;2022-12-29T13:55:30;9.40;99.90
21282;DHT22;10800;53.096;18.328;2022-12-29T14:06:14;9.30;99.90
21282;DHT22;10800;53.096;18.328;2022-12-29T14:11:21;9.10;99.90
21282;DHT22;10800;53.096;18.328;2022-12-29T14:16:33;9.00;99.90
21282;DHT22;10800;53.096;18.328;2022-12-29T14:21:39;8.90;99.90
21282;DHT22;10800;53.096;18.328;2022-12-29T14:26:45;8.70;99.90
21282;DHT22;10800;53.096;18.328;2022-12-29T14:31:51;8.50;99.90
21282;DHT22;10800;53.096;18.328;2022-12-29T14:37:00;8.40;99.90
21282;DHT22;10800;53.096;18.328;2022-12-29T14:42:13;8.30;99.90
21282;DHT22;10800;53.096;18.328;2022-12-29T14:52:45;8.20;99.90
21282;DHT22;10800;53.096;18.328;2022-12-29T14:57:57;8.20;99.90
21282;DHT22;10800;53.096;18.328;2022-12-29T15:03:22;8.30;99.90
21282;DHT22;10800;53.096;18.328;2022-12-29T15:08:30;8.30;99.90
21282;DHT22;10800;53.096;18.328;2022-12-29T15:13:39;8.40;99.90
21282;DHT22;10800;53.096;18.328;2022-12-29T15:18:46;8.60;99.90
21282;DHT22;10800;53.096;18.328;2022-12-29T15:23:52;8.70;99.90
21282;DHT22;10800;53.096;18.328;2022-12-29T15:28:58;8.60;99.90
21282;DHT22;10800;53.096;18.328;2022-12-29T15:34:12;8.60;99.90
21282;DHT22;10800;53.096;18.328;2022-12-29T15:39:20;8.50;99.90
21282;DHT22;10800;53.096;18.328;2022-12-29T15:44:38;8.60;99.90
21282;DHT22;10800;53.096;18.328;2022-12-29T15:49:53;8.70;99.90
21282;DHT22;10800;53.096;18.328;2022-12-29T15:55:03;8.60;99.90
21282;DHT22;10800;53.096;18.328;2022-12-29T16:00:26;8.70;99.90
21282;DHT22;10800;53.096;18.328;2022-12-29T16:05:35;8.80;99.90
21282;DHT22;10800;53.096;18.328;2022-12-29T16:10:43;8.70;99.90
21282;DHT22;10800;53.096;18.328;2022-12-29T16:15:48;8.70;99.90
21282;DHT22;10800;53.096;18.328;2022-12-29T16:20:56;8.90;99.90
21282;DHT22;10800;53.096;18.328;2022-12-29T16:26:01;9.00;99.90
21282;DHT22;10800;53.096;18.328;2022-12-29T16:31:20;9.00;99.90
21282;DHT22;10800;53.096;18.328;2022-12-29T16:36:32;8.90;99.90
21282;DHT22;10800;53.096;18.328;2022-12-29T16:41:38;8.90;99.90
21282;DHT22;10800;53.096;18.328;2022-12-29T16:52:29;8.80;99.90
21282;DHT22;10800;53.096;18.328;2022-12-29T16:57:37;8.90;99.90
21282;DHT22;10800;53.096;18.328;2022-12-29T17:02:42;8.90;99.90
21282;DHT22;10800;53.096;18.328;2022-12-29T17:07:50;8.80;99.90
21282;DHT22;10800;53.096;18.328;2022-12-29T17:12:59;8.80;99.90
21282;DHT22;10800;53.096;18.328;2022-12-29T17:18:06;8.70;99.90
21282;DHT22;10800;53.096;18.328;2022-12-29T17:23:15;8.70;99.90
21282;DHT22;10800;53.096;18.328;2022-12-29T17:28:32;8.70;99.90
21282;DHT22;10800;53.096;18.328;2022-12-29T17:33:37;8.70;99.90
21282;DHT22;10800;53.096;18.328;2022-12-29T17:38:45;8.70;99.90
21282;DHT22;10800;53.096;18.328;2022-12-29T17:43:51;8.70;99.90
21282;DHT22;10800;53.096;18.328;2022-12-29T17:48:56;8.80;99.90
21282;DHT22;10800;53.096;18.328;2022-12-29T17:54:03;8.80;99.90
21282;DHT22;10800;53.096;18.328;2022-12-29T17:59:12;8.80;99.90
21282;DHT22;10800;53.096;18.328;2022-12-29T18:04:21;8.70;99.90
21282;DHT22;10800;53.096;18.328;2022-12-29T18:09:26;8.70;99.90
21282;DHT22;10800;53.096;18.328;2022-12-29T18:14:31;8.60;99.90
21282;DHT22;10800;53.096;18.328;2022-12-29T18:19:39;8.60;99.90
21282;DHT22;10800;53.096;18.328;2022-12-29T18:24:43;8.60;99.90
21282;DHT22;10800;53.096;18.328;2022-12-29T18:29:49;8.60;99.90
21282;DHT22;10800;53.096;18.328;2022-12-29T18:34:58;8.50;99.90
21282;DHT22;10800;53.096;18.328;2022-12-29T18:40:04;8.50;99.90
21282;DHT22;10800;53.096;18.328;2022-12-29T18:45:21;8.40;99.90
21282;DHT22;10800;53.096;18.328;2022-12-29T18:50:27;8.30;99.90
21282;DHT22;10800;53.096;18.328;2022-12-29T18:55:36;8.30;99.90
21282;DHT22;10800;53.096;18.328;2022-12-29T19:00:46;8.10;99.90
21282;DHT22;10800;53.096;18.328;2022-12-29T19:05:52;8.10;99.90
21282;DHT22;10800;53.096;18.328;2022-12-29T19:10:59;8.10;99.90
21282;DHT22;10800;53.096;18.328;2022-12-29T19:16:05;8.00;99.90
21282;DHT22;10800;53.096;18.328;2022-12-29T19:21:13;7.80;99.90
21282;DHT22;10800;53.096;18.328;2022-12-29T19:26:27;7.80;99.90
21282;DHT22;10800;53.096;18.328;2022-12-29T19:31:33;7.80;99.90
21282;DHT22;10800;53.096;18.328;2022-12-29T19:36:42;7.70;99.90
21282;DHT22;10800;53.096;18.328;2022-12-29T19:41:51;7.70;99.90
21282;DHT22;10800;53.096;18.328;2022-12-29T19:47:03;7.80;99.90
21282;DHT22;10800;53.096;18.328;2022-12-29T19:52:11;7.90;99.90
21282;DHT22;10800;53.096;18.328;2022-12-29T19:57:37;7.90;99.90
21282;DHT22;10800;53.096;18.328;2022-12-29T20:02:42;7.90;99.90
21282;DHT22;10800;53.096;18.328;2022-12-29T20:07:48;7.90;99.90
21282;DHT22;10800;53.096;18.328;2022-12-29T20:12:53;8.00;99.90
21282;DHT22;10800;53.096;18.328;2022-12-29T20:18:03;8.00;99.90
21282;DHT22;10800;53.096;18.328;2022-12-29T20:23:22;8.10;99.90
21282;DHT22;10800;53.096;18.328;2022-12-29T20:28:29;8.00;99.90
21282;DHT22;10800;53.096;18.328;2022-12-29T20:33:35;8.00;99.90
21282;DHT22;10800;53.096;18.328;2022-12-29T20:38:45;8.00;99.90
21282;DHT22;10800;53.096;18.328;2022-12-29T20:43:54;7.90;99.90
21282;DHT22;10800;53.096;18.328;2022-12-29T20:49:04;7.80;99.90
21282;DHT22;10800;53.096;18.328;2022-12-29T20:54:11;7.80;99.90
21282;DHT22;10800;53.096;18.328;2022-12-29T20:59:32;7.90;99.90
21282;DHT22;10800;53.096;18.328;2022-12-29T21:04:42;8.00;99.90
21282;DHT22;10800;53.096;18.328;2022-12-29T21:15:45;7.80;99.90
21282;DHT22;10800;53.096;18.328;2022-12-29T21:21:04;7.70;99.90
21282;DHT22;10800;53.096;18.328;2022-12-29T21:26:18;7.70;99.90
21282;DHT22;10800;53.096;18.328;2022-12-29T21:31:29;7.90;99.90
21282;DHT22;10800;53.096;18.328;2022-12-29T21:36:42;7.90;99.90
21282;DHT22;10800;53.096;18.328;2022-12-29T21:41:53;8.10;99.90
21282;DHT22;10800;53.096;18.328;2022-12-29T21:47:06;8.20;99.90
21282;DHT22;10800;53.096;18.328;2022-12-29T21:52:34;8.20;99.90
21282;DHT22;10800;53.096;18.328;2022-12-29T21:57:42;8.10;99.90
21282;DHT22;10800;53.096;18.328;2022-12-29T22:03:11;8.10;99.90
21282;DHT22;10800;53.096;18.328;2022-12-29T22:08:37;8.10;99.90
21282;DHT22;10800;53.096;18.328;2022-12-29T22:14:06;8.00;99.90
21282;DHT22;10800;53.096;18.328;2022-12-29T22:19:39;8.00;99.90
21282;DHT22;10800;53.096;18.328;2022-12-29T22:24:49;8.10;99.90
21282;DHT22;10800;53.096;18.328;2022-12-29T22:30:17;8.20;99.90
21282;DHT22;10800;53.096;18.328;2022-12-29T22:35:29;8.30;99.90
21282;DHT22;10800;53.096;18.328;2022-12-29T22:40:42;8.30;99.90
21282;DHT22;10800;53.096;18.328;2022-12-29T22:45:50;8.30;99.90
21282;DHT22;10800;53.096;18.328;2022-12-29T22:50:58;8.40;99.90
21282;DHT22;10800;53.096;18.328;2022-12-29T22:56:11;8.40;99.90
21282;DHT22;10800;53.096;18.328;2022-12-29T23:01:23;8.40;99.90
21282;DHT22;10800;53.096;18.328;2022-12-29T23:06:54;8.40;99.90
21282;DHT22;10800;53.096;18.328;2022-12-29T23:12:02;8.40;99.90
21282;DHT22;10800;53.096;18.328;2022-12-29T23:17:15;8.30;99.90
21282;DHT22;10800;53.096;18.328;2022-12-29T23:22:21;8.20;99.90
21282;DHT22;10800;53.096;18.328;2022-12-29T23:27:51;8.20;99.90
21282;DHT22;10800;53.096;18.328;2022-12-29T23:33:02;8.30;99.90
21282;DHT22;10800;53.096;18.328;2022-12-29T23:38:31;8.30;99.90
21282;DHT22;10800;53.096;18.328;2022-12-29T23:43:45;8.30;99.90
21282;DHT22;10800;53.096;18.328;2022-12-29T23:48:56;8.30;99.90
21282;DHT22;10800;53.096;18.328;2022-12-29T23:54:16;8.40;99.90
21282;DHT22;10800;53.096;18.328;2022-12-29T23:59:32;8.30;99.90
